Time;durP1;ratioP1;P1;durP2;ratioP2;P2;SDS_P1;SDS_P2;PMS_P1;PMS_P2;Temp;Humidity;BMP_temperature;BMP_pressure;BME280_temperature;BME280_humidity;BME280_pressure;Samples;Min_cycle;Max_cycle;Signal;HPM_P1;HPM_P2
2023/01/23 00:01:22;;;;;;;12.73;6.00;;;2.00;99.90;;;;;;5050054;28;20043;-86
2023/01/23 00:03:47;;;;;;;10.90;6.05;;;1.90;99.90;;;;;;5020577;28;20064;-86
2023/01/23 00:06:16;;;;;;;12.77;6.10;;;1.90;99.90;;;;;;5029670;28;20041;-86
2023/01/23 00:08:43;;;;;;;12.15;6.30;;;1.70;99.90;;;;;;5050682;28;20037;-86
2023/01/23 00:11:12;;;;;;;12.90;6.03;;;1.90;99.90;;;;;;5048005;28;20094;-87
2023/01/23 00:13:38;;;;;;;9.73;6.00;;;1.90;99.90;;;;;;5043525;28;20069;-86
2023/01/23 00:16:08;;;;;;;13.00;6.22;;;2.00;99.90;;;;;;5050940;28;20036;-87
2023/01/23 00:18:34;;;;;;;10.95;6.38;;;2.20;99.90;;;;;;5042504;28;20040;-87
2023/01/23 00:21:08;;;;;;;12.05;6.07;;;2.20;99.90;;;;;;5014894;28;20415;-87
2023/01/23 00:23:34;;;;;;;;;;;2.20;99.90;;;;;;5033238;28;20084;-87
2023/01/23 00:26:04;;;;;;;11.23;6.18;;;2.20;99.90;;;;;;5034654;28;19921;-87
2023/01/23 00:28:30;;;;;;;9.90;6.05;;;2.20;99.90;;;;;;5030444;28;20037;-87
2023/01/23 00:31:04;;;;;;;10.57;6.25;;;2.20;99.90;;;;;;5040610;28;20121;-87
2023/01/23 00:33:30;;;;;;;14.65;5.97;;;2.20;99.90;;;;;;5049947;28;20037;-86
2023/01/23 00:35:55;;;;;;;13.00;6.20;;;2.20;99.90;;;;;;5033501;28;20040;-87
2023/01/23 00:38:21;;;;;;;14.10;6.60;;;2.20;99.90;;;;;;5033305;28;20465;-87
2023/01/23 00:40:46;;;;;;;12.57;6.20;;;2.20;99.90;;;;;;5027201;28;20488;-87
2023/01/23 00:43:12;;;;;;;12.18;6.22;;;2.20;99.90;;;;;;5027217;28;20438;-87
2023/01/23 00:45:38;;;;;;;13.15;7.00;;;2.00;99.90;;;;;;5015501;28;20041;-88
2023/01/23 00:48:03;;;;;;;15.38;6.78;;;1.80;99.90;;;;;;5033413;28;20038;-87
2023/01/23 00:50:29;;;;;;;11.77;6.07;;;2.20;99.90;;;;;;5026517;28;20068;-87
2023/01/23 00:52:54;;;;;;;19.20;6.88;;;1.80;99.90;;;;;;5028593;28;20405;-88
2023/01/23 00:55:20;;;;;;;12.77;6.15;;;1.70;99.90;;;;;;5050336;28;20410;-86
2023/01/23 00:57:46;;;;;;;12.75;6.25;;;1.90;99.90;;;;;;5046419;28;20622;-87
2023/01/23 01:00:12;;;;;;;11.55;6.40;;;2.00;99.90;;;;;;5048525;28;20040;-86
2023/01/23 01:02:37;;;;;;;10.75;6.35;;;2.10;99.90;;;;;;5044135;28;20029;-86
2023/01/23 01:05:03;;;;;;;12.82;6.10;;;3.00;99.90;;;;;;5055051;28;20127;-86
2023/01/23 01:07:29;;;;;;;15.65;6.90;;;2.10;99.90;;;;;;5037564;28;20072;-87
2023/01/23 01:09:55;;;;;;;9.30;6.03;;;1.90;99.90;;;;;;5032585;28;20072;-86
2023/01/23 01:12:20;;;;;;;13.82;6.80;;;2.10;99.90;;;;;;5037516;28;20037;-87
2023/01/23 01:14:46;;;;;;;11.32;6.28;;;1.60;99.90;;;;;;5044824;28;20041;-87
2023/01/23 01:17:11;;;;;;;11.73;6.57;;;1.80;99.90;;;;;;5023187;28;20037;-87
2023/01/23 01:19:37;;;;;;;15.00;6.80;;;2.60;99.90;;;;;;5054177;28;20091;-87
2023/01/23 01:22:02;;;;;;;13.75;6.93;;;3.10;99.90;;;;;;5053694;28;20047;-87
2023/01/23 01:24:28;;;;;;;11.35;6.97;;;1.90;99.90;;;;;;5047227;28;20045;-87
2023/01/23 01:26:54;;;;;;;12.30;7.03;;;1.70;99.90;;;;;;5044922;28;20065;-87
2023/01/23 01:29:19;;;;;;;13.80;6.72;;;2.00;99.90;;;;;;5026123;28;20438;-87
2023/01/23 01:31:46;;;;;;;13.60;7.13;;;1.80;99.90;;;;;;5046194;28;20033;-86
2023/01/23 01:34:12;;;;;;;12.15;6.95;;;2.90;99.90;;;;;;5044200;28;20091;-86
2023/01/23 01:36:38;;;;;;;14.35;7.45;;;1.90;99.90;;;;;;5033969;28;20045;-86
2023/01/23 01:39:04;;;;;;;11.07;7.20;;;2.00;99.90;;;;;;5049501;28;20088;-86
2023/01/23 01:41:30;;;;;;;15.23;7.93;;;1.80;99.90;;;;;;5036954;28;20033;-86
2023/01/23 01:43:56;;;;;;;16.88;7.15;;;2.00;99.90;;;;;;5044320;28;20459;-86
2023/01/23 01:46:22;;;;;;;9.98;6.80;;;1.90;99.90;;;;;;5044369;28;20052;-87
2023/01/23 01:49:00;;;;;;;14.00;7.22;;;1.90;99.90;;;;;;5052405;28;20037;-86
2023/01/23 01:51:35;;;;;;;13.25;7.20;;;2.10;99.90;;;;;;5052804;28;20175;-87
2023/01/23 01:54:15;;;;;;;12.75;7.20;;;2.10;99.90;;;;;;5049779;28;20552;-86
2023/01/23 01:56:53;;;;;;;10.93;6.68;;;2.10;99.90;;;;;;5023636;28;20044;-87
2023/01/23 01:59:21;;;;;;;16.27;7.85;;;2.10;99.90;;;;;;5045786;28;20623;-86
2023/01/23 02:01:52;;;;;;;11.93;6.90;;;2.10;99.90;;;;;;5048224;28;20044;-86
2023/01/23 02:04:18;;;;;;;13.23;7.72;;;2.10;99.90;;;;;;5042816;28;20498;-86
2023/01/23 02:06:44;;;;;;;11.60;6.82;;;2.10;99.90;;;;;;5049174;28;21607;-86
2023/01/23 02:09:17;;;;;;;14.32;6.63;;;2.10;99.90;;;;;;5052660;28;20044;-86
2023/01/23 02:11:43;;;;;;;14.23;7.87;;;2.10;99.90;;;;;;5045410;28;20514;-86
2023/01/23 02:14:09;;;;;;;13.60;7.28;;;2.10;99.90;;;;;;5051687;28;20298;-86
2023/01/23 02:16:39;;;;;;;20.90;8.20;;;2.10;99.90;;;;;;5048303;28;20091;-86
2023/01/23 02:19:30;;;;;;;12.93;7.70;;;2.10;99.90;;;;;;5026430;28;20502;-86
2023/01/23 02:22:21;;;;;;;11.95;6.90;;;2.10;99.90;;;;;;5041383;28;20049;-86
2023/01/23 02:25:09;;;;;;;14.35;7.60;;;2.10;99.90;;;;;;5022065;28;20040;-86
2023/01/23 02:27:35;;;;;;;17.27;7.90;;;2.10;99.90;;;;;;5040407;28;20048;-86
2023/01/23 02:30:02;;;;;;;17.55;7.80;;;2.10;99.90;;;;;;5048778;28;20053;-86
2023/01/23 02:32:28;;;;;;;17.13;7.60;;;2.50;99.90;;;;;;5035509;28;20041;-86
2023/01/23 02:34:58;;;;;;;13.23;7.15;;;2.10;99.90;;;;;;5053199;28;20079;-87
2023/01/23 02:37:28;;;;;;;13.60;7.13;;;2.10;99.90;;;;;;5052311;28;20044;-86
2023/01/23 02:39:54;;;;;;;13.45;7.65;;;2.10;99.90;;;;;;5036103;28;20040;-86
2023/01/23 02:42:21;;;;;;;13.35;7.30;;;2.10;99.90;;;;;;5052392;28;20040;-86
2023/01/23 02:44:46;;;;;;;15.65;7.50;;;2.00;99.90;;;;;;5052417;28;20033;-87
2023/01/23 02:47:12;;;;;;;15.00;7.40;;;2.90;99.90;;;;;;5032698;28;20402;-87
2023/01/23 02:49:39;;;;;;;11.13;7.25;;;2.10;99.90;;;;;;5036374;28;20037;-86
2023/01/23 02:52:05;;;;;;;12.02;7.72;;;2.30;99.90;;;;;;5045857;28;20049;-86
2023/01/23 02:54:31;;;;;;;11.20;6.93;;;2.60;99.90;;;;;;5032450;28;20119;-86
2023/01/23 02:56:57;;;;;;;13.38;7.43;;;1.90;99.90;;;;;;5035755;28;20049;-86
2023/01/23 03:02:08;;;;;;;10.32;7.03;;;1.80;99.90;;;;;;5038288;28;20068;-86
2023/01/23 03:04:36;;;;;;;18.85;7.43;;;1.90;99.90;;;;;;5032884;28;20038;-86
2023/01/23 03:07:02;;;;;;;16.17;7.32;;;2.70;99.90;;;;;;5052116;28;20037;-86
2023/01/23 03:09:28;;;;;;;11.25;7.07;;;2.20;99.90;;;;;;5039649;28;20040;-86
2023/01/23 03:11:54;;;;;;;14.60;7.90;;;2.10;99.90;;;;;;5032461;28;20033;-86
2023/01/23 03:14:21;;;;;;;12.43;7.60;;;1.80;99.90;;;;;;5022223;28;20044;-86
2023/01/23 03:16:52;;;;;;;11.95;7.28;;;2.50;99.90;;;;;;5042499;28;20578;-87
2023/01/23 03:19:19;;;;;;;13.98;7.80;;;1.80;99.90;;;;;;5021115;28;20099;-87
2023/01/23 03:21:45;;;;;;;12.32;7.93;;;2.80;99.90;;;;;;5032387;28;20069;-87
2023/01/23 03:24:13;;;;;;;15.20;7.80;;;1.80;99.90;;;;;;5021306;28;20099;-87
2023/01/23 03:26:39;;;;;;;14.63;8.80;;;1.80;99.90;;;;;;5048396;28;20088;-87
2023/01/23 03:31:49;;;;;;;12.95;7.18;;;2.20;99.90;;;;;;5049678;28;20056;-86
2023/01/23 03:34:16;;;;;;;13.00;7.60;;;2.10;99.90;;;;;;5035046;28;20048;-86
2023/01/23 03:36:42;;;;;;;13.60;8.00;;;2.20;99.90;;;;;;5046881;28;20037;-86
2023/01/23 03:41:52;;;;;;;;;;;2.10;99.90;;;;;;5047316;28;20117;-87
2023/01/23 03:44:19;;;;;;;18.10;7.85;;;2.10;99.90;;;;;;5047809;28;20003;-86
2023/01/23 03:46:50;;;;;;;16.13;7.13;;;2.10;99.90;;;;;;5034044;28;20044;-87
2023/01/23 03:49:16;;;;;;;18.23;8.05;;;2.10;99.90;;;;;;5030944;28;20123;-87
2023/01/23 03:51:42;;;;;;;15.38;8.85;;;2.10;99.90;;;;;;5037705;28;20426;-86
2023/01/23 03:54:09;;;;;;;12.27;7.80;;;2.10;99.90;;;;;;5068574;28;20128;-87
2023/01/23 03:56:35;;;;;;;13.68;7.47;;;2.10;99.90;;;;;;5040454;28;20441;-86
2023/01/23 03:59:00;;;;;;;12.60;8.05;;;2.10;99.90;;;;;;5032842;28;20099;-86
2023/01/23 04:01:26;;;;;;;13.05;7.95;;;2.10;99.90;;;;;;5046486;28;20124;-86
2023/01/23 04:03:51;;;;;;;12.48;7.40;;;2.10;99.90;;;;;;5027213;28;20072;-87
2023/01/23 04:06:18;;;;;;;14.68;8.43;;;2.70;99.90;;;;;;5031088;28;20495;-86
2023/01/23 04:08:43;;;;;;;16.77;8.35;;;2.10;99.90;;;;;;5043620;28;20171;-87
2023/01/23 04:11:10;;;;;;;13.35;7.43;;;2.00;99.90;;;;;;5029186;28;20076;-86
2023/01/23 04:13:36;;;;;;;13.98;8.27;;;1.70;99.90;;;;;;5045503;28;20033;-86
2023/01/23 04:16:03;;;;;;;15.55;8.85;;;1.80;99.90;;;;;;5030622;28;20127;-86
2023/01/23 04:18:29;;;;;;;14.57;8.00;;;2.10;99.90;;;;;;5015470;28;20203;-86
2023/01/23 04:20:55;;;;;;;15.57;8.65;;;1.80;99.90;;;;;;5049244;28;20188;-86
2023/01/23 04:23:21;;;;;;;15.45;7.82;;;1.70;99.90;;;;;;5033852;28;20080;-86
2023/01/23 04:25:47;;;;;;;15.63;8.63;;;2.10;99.90;;;;;;5050594;28;20037;-85
2023/01/23 04:28:13;;;;;;;13.48;9.02;;;2.10;99.90;;;;;;5033908;28;20114;-86
2023/01/23 04:30:38;;;;;;;12.52;8.07;;;2.10;99.90;;;;;;5050158;28;20059;-86
2023/01/23 04:33:04;;;;;;;15.00;8.60;;;2.10;99.90;;;;;;5045121;28;20068;-87
2023/01/23 04:35:35;;;;;;;17.08;9.13;;;2.10;99.90;;;;;;5023774;28;20045;-86
2023/01/23 04:38:01;;;;;;;14.93;8.90;;;2.10;99.90;;;;;;5033753;28;20127;-86
2023/01/23 04:40:26;;;;;;;14.55;8.90;;;2.00;99.90;;;;;;5033781;28;20120;-87
2023/01/23 04:42:52;;;;;;;19.48;8.45;;;1.80;99.90;;;;;;5031598;28;20033;-86
2023/01/23 04:45:18;;;;;;;16.20;8.82;;;2.60;99.90;;;;;;5049283;28;20422;-86
2023/01/23 04:47:43;;;;;;;17.02;8.90;;;1.90;99.90;;;;;;5016408;28;20065;-86
2023/01/23 04:50:10;;;;;;;11.68;7.95;;;1.80;99.90;;;;;;5033800;28;20658;-87
2023/01/23 04:52:35;;;;;;;17.58;8.93;;;2.00;99.90;;;;;;5050706;28;20084;-87
2023/01/23 04:55:02;;;;;;;15.45;8.63;;;1.80;99.90;;;;;;5049065;28;20455;-86
2023/01/23 04:57:27;;;;;;;15.77;7.90;;;2.50;99.90;;;;;;5026512;28;20079;-86
2023/01/23 04:59:53;;;;;;;16.48;8.38;;;2.00;99.90;;;;;;5050161;28;20433;-86
2023/01/23 05:02:18;;;;;;;15.23;8.52;;;2.00;99.90;;;;;;5049462;28;20064;-86
2023/01/23 05:04:44;;;;;;;14.20;8.25;;;2.00;99.90;;;;;;5034871;28;20640;-86
2023/01/23 05:07:11;;;;;;;14.82;8.45;;;2.00;99.90;;;;;;5016747;28;20147;-86
2023/01/23 05:09:38;;;;;;;17.67;7.60;;;1.90;99.90;;;;;;5042866;28;20041;-86
2023/01/23 05:12:04;;;;;;;14.50;8.40;;;3.30;99.90;;;;;;5032404;28;20041;-86
2023/01/23 05:14:29;;;;;;;15.35;8.63;;;1.00;99.90;;;;;;5037059;28;20045;-86
2023/01/23 05:16:55;;;;;;;13.23;8.45;;;3.00;99.90;;;;;;5044764;28;20041;-86
2023/01/23 05:19:21;;;;;;;13.40;7.93;;;2.00;99.90;;;;;;5044871;28;20099;-86
2023/01/23 05:21:46;;;;;;;18.48;8.65;;;1.90;99.90;;;;;;5049472;28;20033;-86
2023/01/23 05:24:12;;;;;;;14.27;8.55;;;1.60;99.90;;;;;;5049006;28;20041;-86
2023/01/23 05:26:38;;;;;;;16.38;8.48;;;2.00;99.90;;;;;;5049886;28;20033;-86
2023/01/23 05:29:03;;;;;;;12.80;8.13;;;2.00;99.90;;;;;;5031972;28;20112;-87
2023/01/23 05:31:29;;;;;;;15.40;8.38;;;2.00;99.90;;;;;;5048909;28;20045;-86
2023/01/23 05:33:54;;;;;;;10.73;7.32;;;3.00;99.90;;;;;;5045472;28;20056;-86
2023/01/23 05:36:20;;;;;;;14.82;8.45;;;2.00;99.90;;;;;;5021237;28;20247;-86
2023/01/23 05:38:46;;;;;;;14.20;7.90;;;2.00;99.90;;;;;;5018272;28;20048;-86
2023/01/23 05:41:11;;;;;;;14.23;8.32;;;2.00;99.90;;;;;;5043490;28;20049;-87
2023/01/23 05:43:37;;;;;;;15.80;8.63;;;2.00;99.90;;;;;;5031748;28;20032;-86
2023/01/23 05:46:02;;;;;;;17.02;8.80;;;2.00;99.90;;;;;;5047082;28;20063;-86
2023/01/23 05:48:28;;;;;;;19.98;9.65;;;2.00;99.90;;;;;;5030920;28;20112;-86
2023/01/23 05:50:54;;;;;;;22.33;10.63;;;2.00;99.90;;;;;;5030870;28;20036;-87
2023/01/23 05:53:19;;;;;;;15.75;9.48;;;2.00;99.90;;;;;;5024748;28;20052;-86
2023/01/23 05:55:45;;;;;;;14.48;8.40;;;2.00;99.90;;;;;;5036447;28;20041;-87
2023/01/23 05:58:10;;;;;;;15.82;8.25;;;2.00;99.90;;;;;;5050648;28;20048;-86
2023/01/23 06:00:36;;;;;;;15.75;9.02;;;2.00;99.90;;;;;;5034425;28;20116;-87
2023/01/23 06:03:01;;;;;;;18.13;8.98;;;2.00;99.90;;;;;;5047872;28;20554;-87
2023/01/23 06:05:27;;;;;;;13.98;9.02;;;2.00;99.90;;;;;;5033669;28;20071;-86
2023/01/23 06:07:53;;;;;;;15.83;8.43;;;2.40;99.90;;;;;;5031447;28;20037;-87
2023/01/23 06:10:18;;;;;;;13.93;8.52;;;2.80;99.90;;;;;;5053038;28;20032;-86
2023/01/23 06:12:44;;;;;;;16.55;8.50;;;2.00;99.90;;;;;;5028991;28;20553;-86
2023/01/23 06:15:10;;;;;;;16.00;9.02;;;2.00;99.90;;;;;;5047836;28;20490;-86
2023/01/23 06:17:36;;;;;;;15.93;9.10;;;1.90;99.90;;;;;;5023634;28;20120;-86
2023/01/23 06:20:03;;;;;;;16.30;9.10;;;1.90;99.90;;;;;;5042270;28;20093;-85
2023/01/23 06:22:28;;;;;;;20.08;9.02;;;2.00;99.90;;;;;;5036411;28;20120;-86
2023/01/23 06:24:54;;;;;;;15.15;8.52;;;1.90;99.90;;;;;;5049357;28;20111;-86
2023/01/23 06:27:19;;;;;;;17.38;8.95;;;1.90;99.90;;;;;;5046170;28;20037;-86
2023/01/23 06:29:45;;;;;;;17.70;8.95;;;1.90;99.90;;;;;;5029284;28;20119;-86
2023/01/23 06:32:11;;;;;;;14.82;8.63;;;1.80;99.90;;;;;;5045789;28;20430;-85
2023/01/23 06:34:36;;;;;;;14.63;8.70;;;1.60;99.90;;;;;;5048986;28;20041;-86
2023/01/23 06:37:02;;;;;;;16.02;8.55;;;1.90;99.90;;;;;;5052255;28;20457;-86
2023/01/23 06:39:29;;;;;;;15.95;8.95;;;1.90;99.90;;;;;;5027287;28;20041;-86
2023/01/23 06:41:55;;;;;;;19.73;8.77;;;1.80;99.90;;;;;;5045977;28;20124;-86
2023/01/23 06:44:21;;;;;;;14.52;8.23;;;1.90;99.90;;;;;;5040013;28;20384;-86
2023/01/23 06:46:46;;;;;;;17.33;8.27;;;1.90;99.90;;;;;;5028329;28;20064;-87
2023/01/23 06:49:12;;;;;;;14.88;8.23;;;1.90;99.90;;;;;;5033438;28;20529;-86
2023/01/23 06:51:37;;;;;;;14.07;8.25;;;1.80;99.90;;;;;;5044575;28;20041;-86
2023/01/23 06:54:03;;;;;;;14.20;8.55;;;1.90;99.90;;;;;;5050158;28;20048;-86
2023/01/23 06:56:29;;;;;;;13.32;8.50;;;1.80;99.90;;;;;;5041318;28;20048;-86
2023/01/23 06:58:55;;;;;;;12.25;8.32;;;1.80;99.90;;;;;;5018011;28;20467;-85
2023/01/23 07:01:20;;;;;;;15.07;8.48;;;1.90;99.90;;;;;;5032680;28;20049;-86
2023/01/23 07:03:46;;;;;;;14.97;9.10;;;1.80;99.90;;;;;;5037757;28;20037;-86
2023/01/23 07:06:12;;;;;;;17.20;9.00;;;1.80;99.90;;;;;;5035722;28;20033;-86
2023/01/23 07:08:39;;;;;;;16.08;7.88;;;1.80;99.90;;;;;;5036011;28;20037;-87
2023/01/23 07:11:05;;;;;;;16.98;9.38;;;1.70;99.90;;;;;;5027758;28;20119;-87
2023/01/23 07:13:32;;;;;;;14.07;8.57;;;1.80;99.90;;;;;;5045915;28;20045;-87
2023/01/23 07:15:57;;;;;;;16.80;8.57;;;1.80;99.90;;;;;;5033295;28;20049;-87
2023/01/23 07:18:26;;;;;;;13.38;8.77;;;1.80;99.90;;;;;;5016660;28;20156;-87
2023/01/23 07:20:52;;;;;;;16.73;9.05;;;1.80;99.90;;;;;;5047786;28;20032;-87
2023/01/23 07:23:18;;;;;;;14.27;8.45;;;1.10;99.90;;;;;;5041866;28;20103;-87
2023/01/23 07:25:44;;;;;;;13.70;7.88;;;1.80;99.90;;;;;;5032451;28;20038;-86
2023/01/23 07:28:10;;;;;;;15.88;8.90;;;1.50;99.90;;;;;;5019546;28;20048;-87
2023/01/23 07:30:36;;;;;;;13.98;9.15;;;1.60;99.90;;;;;;5023509;28;20033;-87
2023/01/23 07:33:02;;;;;;;14.98;8.68;;;1.70;99.90;;;;;;5015851;28;20056;-87
2023/01/23 07:35:27;;;;;;;16.23;8.93;;;1.80;99.90;;;;;;5029228;28;20041;-87
2023/01/23 07:37:53;;;;;;;14.40;7.63;;;2.60;99.90;;;;;;5035831;28;20047;-87
2023/01/23 07:40:19;;;;;;;13.18;7.80;;;1.80;99.90;;;;;;5049515;28;20045;-87
2023/01/23 07:42:45;;;;;;;13.95;8.50;;;1.80;99.90;;;;;;5020038;28;20039;-87
2023/01/23 07:45:11;;;;;;;17.85;8.40;;;1.80;99.90;;;;;;5037893;28;20076;-87
2023/01/23 07:47:38;;;;;;;14.77;8.60;;;1.90;99.90;;;;;;5049949;28;20036;-87
2023/01/23 07:50:06;;;;;;;13.43;7.83;;;2.20;99.90;;;;;;5019086;28;20569;-87
2023/01/23 07:52:31;;;;;;;15.50;8.05;;;1.80;99.90;;;;;;5027290;28;20036;-87
2023/01/23 07:54:57;;;;;;;14.15;7.93;;;1.60;99.90;;;;;;5033199;28;20040;-88
2023/01/23 07:57:23;;;;;;;15.27;8.20;;;1.60;99.90;;;;;;5042786;28;20043;-88
2023/01/23 07:59:48;;;;;;;13.07;7.63;;;1.90;99.90;;;;;;5028236;28;20029;-88
2023/01/23 08:02:14;;;;;;;14.90;8.68;;;2.30;99.90;;;;;;5023239;28;20046;-87
2023/01/23 08:04:39;;;;;;;13.77;8.23;;;1.60;99.90;;;;;;5032239;28;20037;-87
2023/01/23 08:07:05;;;;;;;12.70;7.97;;;3.00;99.90;;;;;;5033552;28;20479;-87
2023/01/23 08:09:30;;;;;;;13.68;8.25;;;2.00;99.90;;;;;;5034977;28;20037;-87
2023/01/23 08:11:56;;;;;;;15.02;8.60;;;2.60;99.90;;;;;;5029162;28;20033;-86
2023/01/23 08:14:22;;;;;;;13.57;8.00;;;2.00;99.90;;;;;;5049687;28;20033;-87
2023/01/23 08:17:00;;;;;;;17.30;8.50;;;2.00;99.90;;;;;;5036791;28;20033;-87
2023/01/23 08:19:26;;;;;;;14.13;8.25;;;2.00;99.90;;;;;;5026596;28;20037;-87
2023/01/23 08:21:52;;;;;;;12.90;8.02;;;2.10;99.90;;;;;;5039389;28;20088;-87
2023/01/23 08:24:18;;;;;;;12.50;7.63;;;2.70;99.90;;;;;;5032518;28;20048;-88
2023/01/23 08:26:44;;;;;;;15.52;7.88;;;3.20;99.90;;;;;;5026782;28;20410;-87
2023/01/23 08:29:12;;;;;;;14.05;7.45;;;2.10;99.90;;;;;;5023841;28;20033;-88
2023/01/23 08:31:38;;;;;;;12.10;7.15;;;2.50;99.90;;;;;;5046435;28;20456;-87
2023/01/23 08:34:05;;;;;;;13.45;7.53;;;1.80;99.90;;;;;;5024084;28;20456;-88
2023/01/23 08:36:31;;;;;;;12.68;7.13;;;1.90;99.90;;;;;;5034332;28;20437;-87
2023/01/23 08:38:56;;;;;;;12.68;6.97;;;1.60;99.90;;;;;;5030992;28;20124;-87
2023/01/23 08:41:22;;;;;;;10.52;6.50;;;3.20;99.90;;;;;;5038310;28;20045;-87
2023/01/23 08:43:49;;;;;;;11.15;6.40;;;2.80;99.90;;;;;;5029463;28;20414;-88
2023/01/23 08:46:14;;;;;;;11.32;6.95;;;1.80;99.90;;;;;;5050670;28;20040;-87
2023/01/23 08:48:40;;;;;;;11.00;6.47;;;1.90;99.90;;;;;;5034868;28;20517;-88
2023/01/23 08:51:12;;;;;;;10.63;6.57;;;3.00;99.90;;;;;;5026114;28;20091;-87
2023/01/23 08:53:38;;;;;;;11.00;6.40;;;1.80;99.90;;;;;;5026657;28;20048;-87
2023/01/23 08:56:06;;;;;;;9.55;6.28;;;2.10;99.90;;;;;;5031521;28;20491;-87
2023/01/23 08:58:31;;;;;;;12.00;6.40;;;2.30;99.90;;;;;;5046488;28;20119;-87
2023/01/23 09:01:14;;;;;;;9.48;6.28;;;2.10;99.90;;;;;;5034573;28;20112;-87
2023/01/23 09:03:40;;;;;;;11.13;6.03;;;2.40;99.90;;;;;;5042845;28;20033;-87
2023/01/23 09:06:07;;;;;;;9.93;5.95;;;2.40;99.90;;;;;;5046937;28;20033;-87
2023/01/23 09:08:35;;;;;;;8.40;5.88;;;2.80;99.90;;;;;;5028904;28;20044;-87
2023/01/23 09:11:02;;;;;;;9.50;5.90;;;2.50;99.90;;;;;;5044954;28;20138;-88
2023/01/23 09:13:28;;;;;;;9.38;5.72;;;2.50;99.90;;;;;;5047201;28;20060;-87
2023/01/23 09:15:54;;;;;;;10.63;6.53;;;2.50;99.90;;;;;;5045020;28;20033;-87
2023/01/23 09:18:26;;;;;;;8.57;5.43;;;2.50;99.90;;;;;;5034343;28;20041;-87
2023/01/23 09:20:52;;;;;;;9.13;5.68;;;2.50;99.90;;;;;;5045361;28;20053;-88
2023/01/23 09:23:18;;;;;;;9.30;5.90;;;2.50;99.90;;;;;;5045060;28;20040;-87
2023/01/23 09:25:44;;;;;;;8.13;5.55;;;2.50;99.90;;;;;;5036941;28;20116;-87
2023/01/23 09:28:10;;;;;;;8.93;5.97;;;2.60;99.90;;;;;;5053837;28;20037;-87
2023/01/23 09:30:35;;;;;;;8.70;5.57;;;2.70;99.90;;;;;;5029655;28;20048;-88
2023/01/23 09:33:01;;;;;;;9.30;5.82;;;2.60;99.90;;;;;;5046255;28;20513;-87
2023/01/23 09:35:27;;;;;;;8.88;5.95;;;2.50;99.90;;;;;;5047276;28;20096;-87
2023/01/23 09:37:59;;;;;;;8.98;5.85;;;2.60;99.90;;;;;;5023222;28;20045;-87
2023/01/23 09:40:27;;;;;;;8.55;5.78;;;2.40;99.90;;;;;;5049981;28;20048;-87
2023/01/23 09:43:07;;;;;;;8.10;5.47;;;2.70;99.90;;;;;;5028774;28;20107;-87
2023/01/23 09:45:58;;;;;;;8.82;5.55;;;2.70;99.90;;;;;;5032113;28;20037;-87
2023/01/23 09:48:41;;;;;;;8.60;5.55;;;2.80;99.90;;;;;;5032569;28;20387;-87
2023/01/23 09:51:32;;;;;;;8.80;6.20;;;2.70;99.90;;;;;;5063259;28;20502;-87
2023/01/23 09:54:15;;;;;;;9.13;6.03;;;2.70;99.90;;;;;;5037620;28;20406;-86
2023/01/23 09:56:43;;;;;;;7.40;5.45;;;2.70;99.90;;;;;;5037570;28;20444;-87
2023/01/23 09:59:09;;;;;;;8.80;5.38;;;2.80;99.90;;;;;;5036007;28;20032;-86
2023/01/23 10:01:36;;;;;;;8.07;5.40;;;2.80;99.90;;;;;;5053874;28;20075;-86
2023/01/23 10:04:14;;;;;;;9.95;5.53;;;2.80;99.90;;;;;;5053685;28;20109;-87
2023/01/23 10:07:00;;;;;;;7.68;5.15;;;3.30;99.90;;;;;;5037111;28;20052;-87
2023/01/23 10:09:48;;;;;;;8.05;5.68;;;2.90;99.90;;;;;;5050599;28;20044;-86
2023/01/23 10:12:48;;;;;;;10.30;6.00;;;3.90;99.90;;;;;;5046808;28;20055;-87
2023/01/23 10:15:18;;;;;;;11.40;5.93;;;2.90;99.90;;;;;;5048869;28;20516;-86
2023/01/23 10:17:52;;;;;;;9.40;5.78;;;3.00;99.90;;;;;;5051170;28;20049;-87
2023/01/23 10:20:33;;;;;;;9.80;6.32;;;3.00;99.90;;;;;;5054248;28;20494;-88
2023/01/23 10:23:41;;;;;;;8.88;6.00;;;3.00;99.90;;;;;;5038044;28;20048;-88
2023/01/23 10:26:14;;;;;;;10.93;6.00;;;3.00;99.90;;;;;;5036879;28;20050;-86
2023/01/23 10:28:45;;;;;;;8.40;5.67;;;3.00;99.90;;;;;;5039411;28;20585;-85
2023/01/23 10:31:21;;;;;;;10.07;6.15;;;3.10;99.90;;;;;;5052641;28;20053;-85
2023/01/23 10:34:10;;;;;;;8.25;5.55;;;3.00;99.90;;;;;;5049296;28;20451;-86
2023/01/23 10:36:50;;;;;;;8.27;6.20;;;3.10;99.90;;;;;;5010774;28;20103;-87
2023/01/23 10:39:21;;;;;;;10.85;6.85;;;3.10;99.90;;;;;;5046083;28;20044;-87
2023/01/23 10:41:47;;;;;;;8.88;6.03;;;3.10;99.90;;;;;;5025035;28;20044;-87
2023/01/23 10:44:16;;;;;;;10.85;6.10;;;3.30;99.90;;;;;;5053054;28;20037;-87
2023/01/23 10:46:55;;;;;;;9.80;5.93;;;3.10;99.90;;;;;;5036152;28;20037;-88
2023/01/23 10:49:36;;;;;;;11.02;6.75;;;3.20;99.90;;;;;;5031546;28;20661;-88
2023/01/23 10:52:03;;;;;;;9.60;6.78;;;3.10;99.90;;;;;;5038690;28;20056;-88
2023/01/23 10:54:29;;;;;;;8.93;6.35;;;3.20;99.90;;;;;;5027435;28;20479;-88
2023/01/23 10:56:58;;;;;;;10.68;7.03;;;3.20;99.90;;;;;;5045167;28;20074;-88
2023/01/23 10:59:34;;;;;;;10.18;7.22;;;3.20;99.90;;;;;;5035754;28;20033;-88
2023/01/23 11:02:12;;;;;;;10.07;6.93;;;3.30;99.90;;;;;;5027332;28;20491;-87
2023/01/23 11:04:38;;;;;;;12.68;6.55;;;3.20;99.90;;;;;;5050485;28;20124;-88
2023/01/23 11:07:11;;;;;;;11.23;7.20;;;3.40;99.90;;;;;;5033823;28;20132;-87
2023/01/23 11:09:48;;;;;;;10.75;6.95;;;3.20;99.90;;;;;;5033765;28;20064;-88
2023/01/23 11:12:17;;;;;;;11.82;7.63;;;3.30;99.90;;;;;;5036290;28;20473;-88
2023/01/23 11:15:20;;;;;;;11.63;7.32;;;3.30;99.90;;;;;;5035657;28;20521;-88
2023/01/23 11:17:45;;;;;;;11.30;7.30;;;3.30;99.90;;;;;;5021731;28;20369;-88
2023/01/23 11:20:23;;;;;;;13.38;7.78;;;3.30;99.90;;;;;;5036527;28;20037;-88
2023/01/23 11:23:09;;;;;;;14.00;8.18;;;3.60;99.90;;;;;;5064480;28;20086;-88
2023/01/23 11:25:38;;;;;;;12.20;7.57;;;3.40;99.90;;;;;;5031246;28;20037;-88
2023/01/23 11:28:26;;;;;;;13.38;8.07;;;4.10;99.90;;;;;;5033882;28;20380;-87
2023/01/23 11:30:58;;;;;;;13.38;7.80;;;3.40;99.90;;;;;;5042365;28;20048;-88
2023/01/23 11:33:37;;;;;;;11.85;8.05;;;3.40;99.90;;;;;;5027985;28;20041;-87
2023/01/23 11:36:18;;;;;;;12.05;8.25;;;3.10;99.90;;;;;;5028891;28;20063;-87
2023/01/23 11:38:55;;;;;;;13.10;8.25;;;3.20;99.90;;;;;;5047686;28;20090;-88
2023/01/23 11:41:35;;;;;;;12.85;7.85;;;3.50;99.90;;;;;;5026722;28;20048;-88
2023/01/23 11:44:08;;;;;;;15.35;8.30;;;3.60;99.90;;;;;;5045856;28;20116;-88
2023/01/23 11:46:51;;;;;;;16.70;8.85;;;3.70;99.90;;;;;;5047351;28;20049;-87
2023/01/23 11:49:17;;;;;;;13.38;8.45;;;3.70;99.90;;;;;;5029526;28;20049;-88
2023/01/23 11:52:13;;;;;;;13.93;8.25;;;3.80;99.90;;;;;;5049033;28;20075;-88
2023/01/23 11:54:58;;;;;;;12.93;8.55;;;3.80;99.90;;;;;;5021966;28;20058;-87
2023/01/23 11:57:36;;;;;;;;;;;3.80;99.90;;;;;;5029855;28;20045;-87
2023/01/23 12:00:42;;;;;;;13.40;8.40;;;3.90;99.90;;;;;;5048708;28;19927;-87
2023/01/23 12:03:29;;;;;;;13.20;8.07;;;3.90;99.90;;;;;;5047075;28;20049;-87
2023/01/23 12:06:11;;;;;;;14.25;8.45;;;4.00;99.90;;;;;;5030899;28;20044;-87
2023/01/23 12:09:00;;;;;;;12.80;8.93;;;4.00;99.90;;;;;;5024353;28;20037;-87
2023/01/23 12:11:35;;;;;;;12.13;8.05;;;4.00;99.90;;;;;;5046066;28;20048;-87
2023/01/23 12:14:28;;;;;;;12.43;7.35;;;4.00;99.90;;;;;;5029852;28;20494;-88
2023/01/23 12:17:07;;;;;;;12.10;7.68;;;4.00;99.90;;;;;;5047149;28;20036;-88
2023/01/23 12:19:48;;;;;;;13.43;7.82;;;4.00;99.90;;;;;;5031069;28;20032;-87
2023/01/23 12:22:43;;;;;;;12.48;7.97;;;4.00;99.90;;;;;;5030455;28;20040;-87
2023/01/23 12:25:30;;;;;;;10.80;7.55;;;4.00;99.90;;;;;;5041413;28;20045;-87
2023/01/23 12:28:09;;;;;;;13.85;7.50;;;4.00;99.90;;;;;;5028849;28;20030;-88
2023/01/23 12:30:59;;;;;;;10.77;7.38;;;4.00;99.90;;;;;;5045936;28;20051;-87
2023/01/23 12:33:50;;;;;;;13.05;7.20;;;3.90;99.90;;;;;;5013837;28;20072;-88
2023/01/23 12:36:23;;;;;;;11.43;7.63;;;3.90;99.90;;;;;;5049612;28;20525;-87
2023/01/23 12:39:03;;;;;;;11.93;7.53;;;3.90;99.90;;;;;;5040589;28;20037;-88
2023/01/23 12:41:52;;;;;;;13.23;7.97;;;3.90;99.90;;;;;;5028796;28;20049;-88
2023/01/23 12:44:40;;;;;;;11.82;7.88;;;3.90;99.90;;;;;;5034202;28;20128;-88
2023/01/23 12:47:37;;;;;;;12.23;7.75;;;3.90;99.90;;;;;;5028018;28;20044;-88
2023/01/23 12:50:13;;;;;;;13.85;8.52;;;3.90;99.90;;;;;;5045544;28;20055;-88
2023/01/23 12:52:47;;;;;;;12.70;8.32;;;3.90;99.90;;;;;;5046813;28;20037;-87
2023/01/23 12:55:35;;;;;;;12.15;8.00;;;3.90;99.90;;;;;;5044962;28;20075;-87
2023/01/23 12:58:01;;;;;;;12.45;8.20;;;3.80;99.90;;;;;;5033605;28;20106;-86
2023/01/23 13:00:45;;;;;;;11.45;8.23;;;3.90;99.90;;;;;;5037190;28;20032;-87
2023/01/23 13:03:29;;;;;;;14.52;8.55;;;3.80;99.90;;;;;;5029675;28;20073;-87
2023/01/23 13:05:57;;;;;;;13.57;8.05;;;3.80;99.90;;;;;;5052405;28;20413;-86
2023/01/23 13:08:43;;;;;;;11.95;8.30;;;3.70;99.90;;;;;;5053595;28;20049;-87
2023/01/23 13:11:41;;;;;;;13.63;7.95;;;3.70;99.90;;;;;;5054518;28;20041;-86